Terminal Aerodrome Forecast
Issued by NWS

Home | Current Version | Previous Version | Text Only | Print | Product List | Glossary On
Versions: 1 2 3 4 5 6 7 8 9 10 11 12 13 14 15
680
FTUS45 KABQ 212320
TAFTCC
TAF
KTCC 212320Z 2200/2224 19012G20KT P6SM SCT070 BKN150
     FM220100 16011KT P6SM VCTS BKN050CB BKN150
      TEMPO 2202/2206 VRB22G35KT TSRA BKN040CB
     FM220600 16006KT 6SM BR VCSH OVC035
     FM221500 18013KT P6SM BKN050
     FM222100 18015G25KT P6SM VCTS SCT080CB SCT150=

USA.gov is the U.S. government's official web portal to all federal, state and local government web resources and services.